sensor_id;sensor_type;location;lat;lon;timestamp;P1;durP1;ratioP1;P2;durP2;ratioP2
803;SDS011;25687;49.976;8.240;2022-08-21T00:02:21;5.83;;;3.07;;
803;SDS011;25687;49.976;8.240;2022-08-21T00:04:49;6.80;;;2.87;;
803;SDS011;25687;49.976;8.240;2022-08-21T00:07:15;7.23;;;3.10;;
803;SDS011;25687;49.976;8.240;2022-08-21T00:09:41;8.80;;;3.13;;
803;SDS011;25687;49.976;8.240;2022-08-21T00:12:07;6.17;;;3.17;;
803;SDS011;25687;49.976;8.240;2022-08-21T00:14:32;7.67;;;2.97;;
803;SDS011;25687;49.976;8.240;2022-08-21T00:16:59;6.50;;;3.40;;
803;SDS011;25687;49.976;8.240;2022-08-21T00:19:25;5.27;;;2.93;;
803;SDS011;25687;49.976;8.240;2022-08-21T00:21:51;6.60;;;3.20;;
803;SDS011;25687;49.976;8.240;2022-08-21T00:24:17;7.87;;;3.00;;
803;SDS011;25687;49.976;8.240;2022-08-21T00:26:43;7.57;;;3.47;;
803;SDS011;25687;49.976;8.240;2022-08-21T00:29:08;6.77;;;3.30;;
803;SDS011;25687;49.976;8.240;2022-08-21T00:31:34;5.07;;;3.30;;
803;SDS011;25687;49.976;8.240;2022-08-21T00:33:59;8.77;;;3.03;;
803;SDS011;25687;49.976;8.240;2022-08-21T00:36:25;9.47;;;3.33;;
803;SDS011;25687;49.976;8.240;2022-08-21T00:38:50;5.07;;;3.13;;
803;SDS011;25687;49.976;8.240;2022-08-21T00:41:15;8.10;;;3.00;;
803;SDS011;25687;49.976;8.240;2022-08-21T00:43:41;6.43;;;2.97;;
803;SDS011;25687;49.976;8.240;2022-08-21T00:46:06;5.03;;;3.07;;
803;SDS011;25687;49.976;8.240;2022-08-21T00:48:33;8.37;;;3.20;;
803;SDS011;25687;49.976;8.240;2022-08-21T00:51:05;10.67;;;3.37;;
803;SDS011;25687;49.976;8.240;2022-08-21T00:53:34;8.53;;;3.00;;
803;SDS011;25687;49.976;8.240;2022-08-21T00:56:03;5.10;;;2.93;;
803;SDS011;25687;49.976;8.240;2022-08-21T00:58:31;6.80;;;3.47;;
803;SDS011;25687;49.976;8.240;2022-08-21T01:01:00;6.53;;;3.00;;
803;SDS011;25687;49.976;8.240;2022-08-21T01:03:27;7.30;;;3.30;;
803;SDS011;25687;49.976;8.240;2022-08-21T01:05:53;5.77;;;2.53;;
803;SDS011;25687;49.976;8.240;2022-08-21T01:08:19;8.33;;;3.13;;
803;SDS011;25687;49.976;8.240;2022-08-21T01:10:47;8.90;;;3.07;;
803;SDS011;25687;49.976;8.240;2022-08-21T01:13:13;5.90;;;2.80;;
803;SDS011;25687;49.976;8.240;2022-08-21T01:15:42;6.97;;;3.17;;
803;SDS011;25687;49.976;8.240;2022-08-21T01:18:11;6.57;;;3.30;;
803;SDS011;25687;49.976;8.240;2022-08-21T01:20:39;5.53;;;2.80;;
803;SDS011;25687;49.976;8.240;2022-08-21T01:23:11;5.17;;;2.93;;
803;SDS011;25687;49.976;8.240;2022-08-21T01:25:37;6.90;;;2.90;;
803;SDS011;25687;49.976;8.240;2022-08-21T01:28:04;6.13;;;3.20;;
803;SDS011;25687;49.976;8.240;2022-08-21T01:30:36;7.37;;;3.10;;
803;SDS011;25687;49.976;8.240;2022-08-21T01:33:03;6.20;;;2.70;;
803;SDS011;25687;49.976;8.240;2022-08-21T01:35:29;8.10;;;3.50;;
803;SDS011;25687;49.976;8.240;2022-08-21T01:37:54;7.27;;;2.70;;
803;SDS011;25687;49.976;8.240;2022-08-21T01:40:20;8.60;;;3.20;;
803;SDS011;25687;49.976;8.240;2022-08-21T01:42:46;6.50;;;3.07;;
803;SDS011;25687;49.976;8.240;2022-08-21T01:45:12;5.90;;;2.97;;
803;SDS011;25687;49.976;8.240;2022-08-21T01:47:39;5.50;;;2.97;;
803;SDS011;25687;49.976;8.240;2022-08-21T01:50:06;6.00;;;2.73;;
803;SDS011;25687;49.976;8.240;2022-08-21T01:52:35;7.27;;;2.50;;
803;SDS011;25687;49.976;8.240;2022-08-21T01:55:01;6.93;;;2.70;;
803;SDS011;25687;49.976;8.240;2022-08-21T01:57:28;7.13;;;3.23;;
803;SDS011;25687;49.976;8.240;2022-08-21T01:59:58;8.10;;;3.17;;
803;SDS011;25687;49.976;8.240;2022-08-21T02:02:24;8.87;;;3.90;;
803;SDS011;25687;49.976;8.240;2022-08-21T02:04:49;8.63;;;3.37;;
803;SDS011;25687;49.976;8.240;2022-08-21T02:07:14;6.40;;;2.83;;
803;SDS011;25687;49.976;8.240;2022-08-21T02:09:40;6.40;;;2.80;;
803;SDS011;25687;49.976;8.240;2022-08-21T02:12:09;6.20;;;3.20;;
803;SDS011;25687;49.976;8.240;2022-08-21T02:14:35;7.43;;;3.53;;
803;SDS011;25687;49.976;8.240;2022-08-21T02:17:00;6.00;;;2.70;;
803;SDS011;25687;49.976;8.240;2022-08-21T02:19:26;8.57;;;2.77;;
803;SDS011;25687;49.976;8.240;2022-08-21T02:21:51;5.47;;;2.93;;
803;SDS011;25687;49.976;8.240;2022-08-21T02:24:16;6.17;;;3.53;;
803;SDS011;25687;49.976;8.240;2022-08-21T02:26:42;6.40;;;3.40;;
803;SDS011;25687;49.976;8.240;2022-08-21T02:29:07;5.63;;;3.00;;
803;SDS011;25687;49.976;8.240;2022-08-21T02:31:33;7.40;;;3.20;;
803;SDS011;25687;49.976;8.240;2022-08-21T02:33:58;7.90;;;3.20;;
803;SDS011;25687;49.976;8.240;2022-08-21T02:36:24;5.60;;;3.00;;
803;SDS011;25687;49.976;8.240;2022-08-21T02:38:52;6.47;;;3.20;;
803;SDS011;25687;49.976;8.240;2022-08-21T02:41:18;8.27;;;3.23;;
803;SDS011;25687;49.976;8.240;2022-08-21T02:43:45;5.63;;;2.93;;
803;SDS011;25687;49.976;8.240;2022-08-21T02:46:13;7.30;;;3.70;;
803;SDS011;25687;49.976;8.240;2022-08-21T02:48:39;9.63;;;3.43;;
803;SDS011;25687;49.976;8.240;2022-08-21T02:51:06;6.20;;;3.63;;
803;SDS011;25687;49.976;8.240;2022-08-21T02:53:34;7.90;;;3.27;;
803;SDS011;25687;49.976;8.240;2022-08-21T02:56:01;8.10;;;3.97;;
803;SDS011;25687;49.976;8.240;2022-08-21T02:58:30;9.00;;;3.30;;
803;SDS011;25687;49.976;8.240;2022-08-21T03:00:57;6.13;;;3.33;;
803;SDS011;25687;49.976;8.240;2022-08-21T03:03:23;10.57;;;3.63;;
803;SDS011;25687;49.976;8.240;2022-08-21T03:05:49;8.23;;;3.13;;
803;SDS011;25687;49.976;8.240;2022-08-21T03:08:16;4.40;;;3.00;;
803;SDS011;25687;49.976;8.240;2022-08-21T03:10:44;7.63;;;3.50;;
803;SDS011;25687;49.976;8.240;2022-08-21T03:13:11;6.47;;;3.23;;
803;SDS011;25687;49.976;8.240;2022-08-21T03:15:38;6.00;;;3.43;;
803;SDS011;25687;49.976;8.240;2022-08-21T03:18:03;8.30;;;3.50;;
803;SDS011;25687;49.976;8.240;2022-08-21T03:20:30;8.37;;;3.30;;
803;SDS011;25687;49.976;8.240;2022-08-21T03:22:57;7.27;;;3.00;;
803;SDS011;25687;49.976;8.240;2022-08-21T03:25:24;4.40;;;2.87;;
803;SDS011;25687;49.976;8.240;2022-08-21T03:27:51;7.80;;;3.33;;
803;SDS011;25687;49.976;8.240;2022-08-21T03:30:17;5.87;;;3.27;;
803;SDS011;25687;49.976;8.240;2022-08-21T03:32:45;5.60;;;2.93;;
803;SDS011;25687;49.976;8.240;2022-08-21T03:35:11;8.77;;;3.30;;
803;SDS011;25687;49.976;8.240;2022-08-21T03:37:37;8.97;;;3.80;;
803;SDS011;25687;49.976;8.240;2022-08-21T03:40:06;5.77;;;3.20;;
803;SDS011;25687;49.976;8.240;2022-08-21T03:42:33;4.90;;;3.17;;
803;SDS011;25687;49.976;8.240;2022-08-21T03:44:58;6.37;;;2.83;;
803;SDS011;25687;49.976;8.240;2022-08-21T03:47:24;8.70;;;3.27;;
803;SDS011;25687;49.976;8.240;2022-08-21T03:49:49;5.20;;;3.10;;
803;SDS011;25687;49.976;8.240;2022-08-21T03:52:15;7.27;;;3.07;;
803;SDS011;25687;49.976;8.240;2022-08-21T03:54:41;7.43;;;3.30;;
803;SDS011;25687;49.976;8.240;2022-08-21T03:57:07;8.13;;;3.50;;
803;SDS011;25687;49.976;8.240;2022-08-21T03:59:33;5.97;;;3.00;;
803;SDS011;25687;49.976;8.240;2022-08-21T04:01:59;9.50;;;3.53;;
803;SDS011;25687;49.976;8.240;2022-08-21T04:04:26;7.80;;;3.27;;
803;SDS011;25687;49.976;8.240;2022-08-21T04:06:53;6.60;;;3.90;;
803;SDS011;25687;49.976;8.240;2022-08-21T04:09:19;6.90;;;3.30;;
803;SDS011;25687;49.976;8.240;2022-08-21T04:11:44;8.33;;;3.63;;
803;SDS011;25687;49.976;8.240;2022-08-21T04:14:13;5.97;;;3.47;;
803;SDS011;25687;49.976;8.240;2022-08-21T04:16:39;8.97;;;3.30;;
803;SDS011;25687;49.976;8.240;2022-08-21T04:19:05;7.57;;;3.63;;
803;SDS011;25687;49.976;8.240;2022-08-21T04:21:32;7.17;;;2.90;;
803;SDS011;25687;49.976;8.240;2022-08-21T04:23:58;7.53;;;3.10;;
803;SDS011;25687;49.976;8.240;2022-08-21T04:26:24;7.40;;;3.27;;
803;SDS011;25687;49.976;8.240;2022-08-21T04:28:50;6.27;;;3.80;;
803;SDS011;25687;49.976;8.240;2022-08-21T04:31:16;8.37;;;4.07;;
803;SDS011;25687;49.976;8.240;2022-08-21T04:33:41;9.77;;;3.47;;
803;SDS011;25687;49.976;8.240;2022-08-21T04:36:06;5.63;;;3.50;;
803;SDS011;25687;49.976;8.240;2022-08-21T04:38:32;8.57;;;3.83;;
803;SDS011;25687;49.976;8.240;2022-08-21T04:40:58;7.83;;;3.40;;
803;SDS011;25687;49.976;8.240;2022-08-21T04:43:23;9.17;;;3.73;;
803;SDS011;25687;49.976;8.240;2022-08-21T04:45:50;5.80;;;3.60;;
803;SDS011;25687;49.976;8.240;2022-08-21T04:48:17;10.33;;;3.87;;
803;SDS011;25687;49.976;8.240;2022-08-21T04:53:33;8.20;;;3.40;;
803;SDS011;25687;49.976;8.240;2022-08-21T04:56:13;4.33;;;3.47;;
803;SDS011;25687;49.976;8.240;2022-08-21T04:58:51;6.60;;;3.43;;
803;SDS011;25687;49.976;8.240;2022-08-21T05:01:20;6.70;;;3.37;;
803;SDS011;25687;49.976;8.240;2022-08-21T05:03:49;7.03;;;3.47;;
803;SDS011;25687;49.976;8.240;2022-08-21T05:06:17;7.03;;;3.90;;
803;SDS011;25687;49.976;8.240;2022-08-21T05:08:43;6.80;;;3.70;;
803;SDS011;25687;49.976;8.240;2022-08-21T05:11:11;6.47;;;3.60;;
803;SDS011;25687;49.976;8.240;2022-08-21T05:13:38;10.20;;;4.50;;
803;SDS011;25687;49.976;8.240;2022-08-21T05:16:05;5.27;;;3.23;;
803;SDS011;25687;49.976;8.240;2022-08-21T05:18:31;6.47;;;3.63;;
803;SDS011;25687;49.976;8.240;2022-08-21T05:20:56;6.90;;;3.13;;
803;SDS011;25687;49.976;8.240;2022-08-21T05:23:22;8.53;;;3.40;;
803;SDS011;25687;49.976;8.240;2022-08-21T05:25:47;8.87;;;3.60;;
803;SDS011;25687;49.976;8.240;2022-08-21T05:28:12;8.73;;;3.80;;
803;SDS011;25687;49.976;8.240;2022-08-21T05:30:38;10.30;;;3.40;;
803;SDS011;25687;49.976;8.240;2022-08-21T05:33:04;6.57;;;3.70;;
803;SDS011;25687;49.976;8.240;2022-08-21T05:35:30;7.53;;;3.20;;
803;SDS011;25687;49.976;8.240;2022-08-21T05:37:57;6.30;;;3.80;;
803;SDS011;25687;49.976;8.240;2022-08-21T05:40:23;8.13;;;3.23;;
803;SDS011;25687;49.976;8.240;2022-08-21T05:42:50;7.80;;;3.50;;
803;SDS011;25687;49.976;8.240;2022-08-21T05:45:16;5.90;;;3.53;;
803;SDS011;25687;49.976;8.240;2022-08-21T05:47:41;6.53;;;2.87;;
803;SDS011;25687;49.976;8.240;2022-08-21T05:50:07;9.57;;;3.93;;
803;SDS011;25687;49.976;8.240;2022-08-21T05:52:32;7.60;;;3.60;;
803;SDS011;25687;49.976;8.240;2022-08-21T05:54:58;9.50;;;3.40;;
803;SDS011;25687;49.976;8.240;2022-08-21T05:57:23;8.07;;;3.83;;
803;SDS011;25687;49.976;8.240;2022-08-21T05:59:50;7.07;;;3.37;;
803;SDS011;25687;49.976;8.240;2022-08-21T06:02:17;8.83;;;3.90;;
803;SDS011;25687;49.976;8.240;2022-08-21T06:04:43;7.27;;;3.90;;
803;SDS011;25687;49.976;8.240;2022-08-21T06:07:08;9.77;;;3.90;;
803;SDS011;25687;49.976;8.240;2022-08-21T06:12:53;13.80;;;5.43;;
803;SDS011;25687;49.976;8.240;2022-08-21T06:15:20;7.97;;;3.93;;
803;SDS011;25687;49.976;8.240;2022-08-21T06:17:45;6.57;;;3.40;;
803;SDS011;25687;49.976;8.240;2022-08-21T06:20:10;6.77;;;3.57;;
803;SDS011;25687;49.976;8.240;2022-08-21T06:22:36;6.50;;;3.10;;
803;SDS011;25687;49.976;8.240;2022-08-21T06:25:01;9.47;;;3.80;;
803;SDS011;25687;49.976;8.240;2022-08-21T06:27:26;8.50;;;3.20;;
803;SDS011;25687;49.976;8.240;2022-08-21T06:29:51;8.10;;;3.60;;
803;SDS011;25687;49.976;8.240;2022-08-21T06:32:17;6.27;;;3.07;;
803;SDS011;25687;49.976;8.240;2022-08-21T06:34:42;5.90;;;3.40;;
803;SDS011;25687;49.976;8.240;2022-08-21T06:37:07;5.70;;;3.50;;
803;SDS011;25687;49.976;8.240;2022-08-21T06:39:33;5.83;;;3.13;;
803;SDS011;25687;49.976;8.240;2022-08-21T06:41:59;9.97;;;4.00;;
803;SDS011;25687;49.976;8.240;2022-08-21T06:44:24;8.93;;;3.40;;
803;SDS011;25687;49.976;8.240;2022-08-21T06:46:50;9.90;;;3.40;;
803;SDS011;25687;49.976;8.240;2022-08-21T06:49:15;7.63;;;3.27;;
803;SDS011;25687;49.976;8.240;2022-08-21T06:51:40;7.13;;;3.53;;
803;SDS011;25687;49.976;8.240;2022-08-21T06:54:06;8.57;;;3.37;;
803;SDS011;25687;49.976;8.240;2022-08-21T06:56:31;6.55;;;3.20;;
803;SDS011;25687;49.976;8.240;2022-08-21T06:58:58;8.20;;;3.42;;
803;SDS011;25687;49.976;8.240;2022-08-21T07:01:24;7.60;;;3.58;;
803;SDS011;25687;49.976;8.240;2022-08-21T07:03:51;8.70;;;3.55;;
803;SDS011;25687;49.976;8.240;2022-08-21T07:06:17;6.13;;;3.60;;
803;SDS011;25687;49.976;8.240;2022-08-21T07:08:42;6.75;;;3.47;;
803;SDS011;25687;49.976;8.240;2022-08-21T07:11:12;5.38;;;3.83;;
803;SDS011;25687;49.976;8.240;2022-08-21T07:13:41;8.50;;;3.90;;
803;SDS011;25687;49.976;8.240;2022-08-21T07:16:07;6.00;;;3.70;;
803;SDS011;25687;49.976;8.240;2022-08-21T07:18:33;4.82;;;3.70;;
803;SDS011;25687;49.976;8.240;2022-08-21T07:21:00;7.00;;;3.42;;
803;SDS011;25687;49.976;8.240;2022-08-21T07:23:28;6.03;;;3.42;;
803;SDS011;25687;49.976;8.240;2022-08-21T07:25:56;5.75;;;3.35;;
803;SDS011;25687;49.976;8.240;2022-08-21T07:28:22;7.03;;;4.00;;
803;SDS011;25687;49.976;8.240;2022-08-21T07:30:50;10.85;;;3.80;;
803;SDS011;25687;49.976;8.240;2022-08-21T07:33:18;8.80;;;3.70;;
803;SDS011;25687;49.976;8.240;2022-08-21T07:35:43;6.00;;;3.50;;
803;SDS011;25687;49.976;8.240;2022-08-21T07:38:09;11.35;;;4.50;;
803;SDS011;25687;49.976;8.240;2022-08-21T07:40:34;5.80;;;4.18;;
803;SDS011;25687;49.976;8.240;2022-08-21T07:43:00;6.93;;;3.88;;
803;SDS011;25687;49.976;8.240;2022-08-21T07:45:25;8.50;;;3.78;;
803;SDS011;25687;49.976;8.240;2022-08-21T07:47:51;7.35;;;3.58;;
803;SDS011;25687;49.976;8.240;2022-08-21T07:50:16;7.45;;;4.03;;
803;SDS011;25687;49.976;8.240;2022-08-21T07:52:43;10.10;;;3.78;;
803;SDS011;25687;49.976;8.240;2022-08-21T07:55:13;5.00;;;3.75;;
803;SDS011;25687;49.976;8.240;2022-08-21T07:57:41;7.75;;;4.32;;
803;SDS011;25687;49.976;8.240;2022-08-21T08:00:08;7.15;;;4.15;;
803;SDS011;25687;49.976;8.240;2022-08-21T08:02:36;7.60;;;4.35;;
803;SDS011;25687;49.976;8.240;2022-08-21T08:05:05;7.10;;;4.43;;
803;SDS011;25687;49.976;8.240;2022-08-21T08:07:32;7.18;;;4.30;;
803;SDS011;25687;49.976;8.240;2022-08-21T08:09:59;6.53;;;3.80;;
803;SDS011;25687;49.976;8.240;2022-08-21T08:12:24;6.32;;;4.40;;
803;SDS011;25687;49.976;8.240;2022-08-21T08:14:57;6.13;;;4.25;;
803;SDS011;25687;49.976;8.240;2022-08-21T08:17:23;6.75;;;4.18;;
803;SDS011;25687;49.976;8.240;2022-08-21T08:19:50;4.47;;;3.55;;
803;SDS011;25687;49.976;8.240;2022-08-21T08:22:16;7.43;;;4.43;;
803;SDS011;25687;49.976;8.240;2022-08-21T08:24:44;10.15;;;4.43;;
803;SDS011;25687;49.976;8.240;2022-08-21T08:27:10;7.97;;;4.80;;
803;SDS011;25687;49.976;8.240;2022-08-21T08:29:35;7.15;;;4.57;;
803;SDS011;25687;49.976;8.240;2022-08-21T08:32:00;8.68;;;4.60;;
803;SDS011;25687;49.976;8.240;2022-08-21T08:34:26;7.07;;;4.07;;
803;SDS011;25687;49.976;8.240;2022-08-21T08:36:52;9.57;;;4.78;;
803;SDS011;25687;49.976;8.240;2022-08-21T08:39:17;8.52;;;4.30;;
803;SDS011;25687;49.976;8.240;2022-08-21T08:41:42;8.30;;;4.60;;
803;SDS011;25687;49.976;8.240;2022-08-21T08:44:12;7.13;;;3.92;;
803;SDS011;25687;49.976;8.240;2022-08-21T08:46:38;7.55;;;3.60;;
803;SDS011;25687;49.976;8.240;2022-08-21T08:49:20;8.65;;;4.75;;
803;SDS011;25687;49.976;8.240;2022-08-21T08:51:55;8.02;;;4.10;;
803;SDS011;25687;49.976;8.240;2022-08-21T08:54:29;8.10;;;3.53;;
803;SDS011;25687;49.976;8.240;2022-08-21T08:56:59;7.60;;;3.75;;
803;SDS011;25687;49.976;8.240;2022-08-21T08:59:27;8.02;;;3.30;;
803;SDS011;25687;49.976;8.240;2022-08-21T09:02:08;6.95;;;2.97;;
803;SDS011;25687;49.976;8.240;2022-08-21T09:04:36;8.10;;;3.65;;
803;SDS011;25687;49.976;8.240;2022-08-21T09:07:11;6.28;;;3.05;;
803;SDS011;25687;49.976;8.240;2022-08-21T09:13:06;8.50;;;3.67;;
803;SDS011;25687;49.976;8.240;2022-08-21T09:22:09;8.85;;;4.15;;
803;SDS011;25687;49.976;8.240;2022-08-21T09:28:09;10.25;;;4.20;;
803;SDS011;25687;49.976;8.240;2022-08-21T09:30:37;10.02;;;4.78;;
803;SDS011;25687;49.976;8.240;2022-08-21T09:33:05;8.73;;;3.70;;
803;SDS011;25687;49.976;8.240;2022-08-21T09:35:31;8.55;;;4.18;;
803;SDS011;25687;49.976;8.240;2022-08-21T09:37:58;10.25;;;4.03;;
803;SDS011;25687;49.976;8.240;2022-08-21T09:40:38;6.78;;;4.10;;
803;SDS011;25687;49.976;8.240;2022-08-21T09:45:34;7.30;;;4.13;;
803;SDS011;25687;49.976;8.240;2022-08-21T09:48:10;7.80;;;3.78;;
803;SDS011;25687;49.976;8.240;2022-08-21T09:50:39;10.48;;;4.13;;
803;SDS011;25687;49.976;8.240;2022-08-21T09:53:14;6.50;;;3.22;;
803;SDS011;25687;49.976;8.240;2022-08-21T09:55:49;6.93;;;3.72;;
803;SDS011;25687;49.976;8.240;2022-08-21T09:58:36;5.70;;;2.97;;
803;SDS011;25687;49.976;8.240;2022-08-21T10:01:03;6.50;;;3.50;;
803;SDS011;25687;49.976;8.240;2022-08-21T10:03:30;10.05;;;3.50;;
803;SDS011;25687;49.976;8.240;2022-08-21T10:05:57;6.57;;;3.35;;
803;SDS011;25687;49.976;8.240;2022-08-21T10:08:25;4.20;;;2.72;;
803;SDS011;25687;49.976;8.240;2022-08-21T10:10:56;8.82;;;3.08;;
803;SDS011;25687;49.976;8.240;2022-08-21T10:13:52;6.47;;;3.25;;
803;SDS011;25687;49.976;8.240;2022-08-21T10:25:33;6.70;;;3.20;;
803;SDS011;25687;49.976;8.240;2022-08-21T10:30:51;5.43;;;2.83;;
803;SDS011;25687;49.976;8.240;2022-08-21T10:33:38;7.28;;;2.78;;
803;SDS011;25687;49.976;8.240;2022-08-21T10:36:45;4.53;;;2.35;;
803;SDS011;25687;49.976;8.240;2022-08-21T10:39:31;5.55;;;2.90;;
803;SDS011;25687;49.976;8.240;2022-08-21T10:52:46;4.47;;;2.83;;
803;SDS011;25687;49.976;8.240;2022-08-21T11:00:51;12.55;;;3.30;;
803;SDS011;25687;49.976;8.240;2022-08-21T11:03:35;5.88;;;3.05;;
803;SDS011;25687;49.976;8.240;2022-08-21T11:08:46;7.30;;;3.45;;
803;SDS011;25687;49.976;8.240;2022-08-21T11:14:01;8.80;;;2.80;;
803;SDS011;25687;49.976;8.240;2022-08-21T11:16:36;5.57;;;2.75;;
803;SDS011;25687;49.976;8.240;2022-08-21T11:19:22;5.47;;;2.67;;
803;SDS011;25687;49.976;8.240;2022-08-21T11:24:49;6.78;;;2.92;;
803;SDS011;25687;49.976;8.240;2022-08-21T11:27:24;5.75;;;2.97;;
803;SDS011;25687;49.976;8.240;2022-08-21T11:29:57;4.90;;;2.50;;
803;SDS011;25687;49.976;8.240;2022-08-21T11:35:32;6.03;;;2.67;;
803;SDS011;25687;49.976;8.240;2022-08-21T11:38:08;5.63;;;2.72;;
803;SDS011;25687;49.976;8.240;2022-08-21T11:51:32;5.90;;;3.33;;
803;SDS011;25687;49.976;8.240;2022-08-21T11:54:05;7.35;;;2.95;;
803;SDS011;25687;49.976;8.240;2022-08-21T11:56:45;6.18;;;2.65;;
803;SDS011;25687;49.976;8.240;2022-08-21T11:59:21;7.15;;;2.60;;
803;SDS011;25687;49.976;8.240;2022-08-21T12:02:01;6.47;;;3.00;;
803;SDS011;25687;49.976;8.240;2022-08-21T12:04:35;6.45;;;2.92;;
803;SDS011;25687;49.976;8.240;2022-08-21T12:09:57;5.72;;;2.70;;
803;SDS011;25687;49.976;8.240;2022-08-21T12:15:04;5.22;;;2.72;;
803;SDS011;25687;49.976;8.240;2022-08-21T12:17:38;5.30;;;3.03;;
803;SDS011;25687;49.976;8.240;2022-08-21T12:22:54;4.45;;;2.67;;
803;SDS011;25687;49.976;8.240;2022-08-21T12:25:36;5.38;;;2.53;;
803;SDS011;25687;49.976;8.240;2022-08-21T12:28:15;5.75;;;2.78;;
803;SDS011;25687;49.976;8.240;2022-08-21T12:30:46;4.60;;;2.85;;
803;SDS011;25687;49.976;8.240;2022-08-21T12:33:32;8.68;;;2.63;;
803;SDS011;25687;49.976;8.240;2022-08-21T12:36:04;6.60;;;2.85;;
803;SDS011;25687;49.976;8.240;2022-08-21T12:38:49;5.60;;;2.63;;
803;SDS011;25687;49.976;8.240;2022-08-21T12:41:24;4.70;;;2.58;;
803;SDS011;25687;49.976;8.240;2022-08-21T12:44:00;5.05;;;2.60;;
803;SDS011;25687;49.976;8.240;2022-08-21T12:46:34;4.30;;;2.58;;
803;SDS011;25687;49.976;8.240;2022-08-21T12:49:14;5.18;;;2.50;;
803;SDS011;25687;49.976;8.240;2022-08-21T12:51:55;5.43;;;2.50;;
803;SDS011;25687;49.976;8.240;2022-08-21T12:54:30;5.85;;;3.00;;
803;SDS011;25687;49.976;8.240;2022-08-21T12:57:02;5.72;;;2.88;;
803;SDS011;25687;49.976;8.240;2022-08-21T12:59:30;5.18;;;2.65;;
803;SDS011;25687;49.976;8.240;2022-08-21T13:01:56;5.68;;;2.80;;
803;SDS011;25687;49.976;8.240;2022-08-21T13:04:58;5.60;;;2.95;;
803;SDS011;25687;49.976;8.240;2022-08-21T13:07:31;7.40;;;2.50;;
803;SDS011;25687;49.976;8.240;2022-08-21T13:10:04;9.65;;;2.88;;
803;SDS011;25687;49.976;8.240;2022-08-21T13:12:40;15.65;;;3.63;;
803;SDS011;25687;49.976;8.240;2022-08-21T13:15:06;5.18;;;2.75;;
803;SDS011;25687;49.976;8.240;2022-08-21T13:17:34;5.05;;;2.47;;
803;SDS011;25687;49.976;8.240;2022-08-21T13:20:09;4.00;;;2.45;;
803;SDS011;25687;49.976;8.240;2022-08-21T13:22:47;4.60;;;2.22;;
803;SDS011;25687;49.976;8.240;2022-08-21T13:25:13;5.30;;;2.78;;
803;SDS011;25687;49.976;8.240;2022-08-21T13:27:41;8.30;;;2.80;;
803;SDS011;25687;49.976;8.240;2022-08-21T13:30:20;8.98;;;2.70;;
803;SDS011;25687;49.976;8.240;2022-08-21T13:32:48;4.40;;;2.45;;
803;SDS011;25687;49.976;8.240;2022-08-21T13:35:17;5.20;;;2.35;;
803;SDS011;25687;49.976;8.240;2022-08-21T13:37:43;6.53;;;2.33;;
803;SDS011;25687;49.976;8.240;2022-08-21T13:40:15;10.60;;;3.00;;
803;SDS011;25687;49.976;8.240;2022-08-21T13:42:45;4.50;;;2.65;;
803;SDS011;25687;49.976;8.240;2022-08-21T13:45:14;5.10;;;2.60;;
803;SDS011;25687;49.976;8.240;2022-08-21T13:47:42;6.70;;;1.90;;
803;SDS011;25687;49.976;8.240;2022-08-21T13:50:11;4.72;;;2.15;;
803;SDS011;25687;49.976;8.240;2022-08-21T13:52:46;4.90;;;2.55;;
803;SDS011;25687;49.976;8.240;2022-08-21T13:55:15;3.80;;;2.28;;
803;SDS011;25687;49.976;8.240;2022-08-21T13:57:41;5.68;;;2.90;;
803;SDS011;25687;49.976;8.240;2022-08-21T14:00:14;6.57;;;2.33;;
803;SDS011;25687;49.976;8.240;2022-08-21T14:02:41;4.85;;;2.30;;
803;SDS011;25687;49.976;8.240;2022-08-21T14:05:31;5.38;;;2.55;;
803;SDS011;25687;49.976;8.240;2022-08-21T14:08:10;5.93;;;2.22;;
803;SDS011;25687;49.976;8.240;2022-08-21T14:10:47;4.35;;;2.33;;
803;SDS011;25687;49.976;8.240;2022-08-21T14:13:24;6.80;;;2.60;;
803;SDS011;25687;49.976;8.240;2022-08-21T14:16:09;4.43;;;2.45;;
803;SDS011;25687;49.976;8.240;2022-08-21T14:18:51;4.55;;;2.40;;
803;SDS011;25687;49.976;8.240;2022-08-21T14:21:30;4.85;;;2.30;;
803;SDS011;25687;49.976;8.240;2022-08-21T14:24:10;5.63;;;2.63;;
803;SDS011;25687;49.976;8.240;2022-08-21T14:26:51;5.68;;;2.30;;
803;SDS011;25687;49.976;8.240;2022-08-21T14:29:19;3.13;;;2.15;;
803;SDS011;25687;49.976;8.240;2022-08-21T14:31:51;4.50;;;2.22;;
803;SDS011;25687;49.976;8.240;2022-08-21T14:34:22;4.40;;;2.10;;
803;SDS011;25687;49.976;8.240;2022-08-21T14:36:50;5.88;;;2.38;;
803;SDS011;25687;49.976;8.240;2022-08-21T14:39:16;4.63;;;2.42;;
803;SDS011;25687;49.976;8.240;2022-08-21T14:41:41;4.88;;;2.40;;
803;SDS011;25687;49.976;8.240;2022-08-21T14:44:07;5.60;;;2.45;;
803;SDS011;25687;49.976;8.240;2022-08-21T14:46:34;4.63;;;2.40;;
803;SDS011;25687;49.976;8.240;2022-08-21T14:49:00;6.03;;;2.53;;
803;SDS011;25687;49.976;8.240;2022-08-21T14:51:26;4.28;;;2.20;;
803;SDS011;25687;49.976;8.240;2022-08-21T14:53:51;3.35;;;2.17;;
803;SDS011;25687;49.976;8.240;2022-08-21T14:56:16;5.55;;;2.47;;
803;SDS011;25687;49.976;8.240;2022-08-21T14:58:45;3.58;;;2.35;;
803;SDS011;25687;49.976;8.240;2022-08-21T15:01:14;3.80;;;2.38;;
803;SDS011;25687;49.976;8.240;2022-08-21T15:03:40;5.72;;;2.45;;
803;SDS011;25687;49.976;8.240;2022-08-21T15:06:06;3.88;;;2.17;;
803;SDS011;25687;49.976;8.240;2022-08-21T15:08:33;3.95;;;2.03;;
803;SDS011;25687;49.976;8.240;2022-08-21T15:10:59;4.05;;;2.25;;
803;SDS011;25687;49.976;8.240;2022-08-21T15:13:26;4.05;;;2.90;;
803;SDS011;25687;49.976;8.240;2022-08-21T15:15:52;3.45;;;2.45;;
803;SDS011;25687;49.976;8.240;2022-08-21T15:18:21;5.10;;;2.50;;
803;SDS011;25687;49.976;8.240;2022-08-21T15:20:48;5.97;;;2.33;;
803;SDS011;25687;49.976;8.240;2022-08-21T15:23:14;2.83;;;2.00;;
803;SDS011;25687;49.976;8.240;2022-08-21T15:25:41;5.00;;;2.50;;
803;SDS011;25687;49.976;8.240;2022-08-21T15:28:07;5.80;;;2.65;;
803;SDS011;25687;49.976;8.240;2022-08-21T15:30:33;3.22;;;1.88;;
803;SDS011;25687;49.976;8.240;2022-08-21T15:33:00;3.95;;;2.20;;
803;SDS011;25687;49.976;8.240;2022-08-21T15:35:25;3.72;;;1.95;;
803;SDS011;25687;49.976;8.240;2022-08-21T15:37:50;5.95;;;2.55;;
803;SDS011;25687;49.976;8.240;2022-08-21T15:40:16;3.47;;;2.22;;
803;SDS011;25687;49.976;8.240;2022-08-21T15:42:42;4.47;;;2.33;;
803;SDS011;25687;49.976;8.240;2022-08-21T15:45:08;3.10;;;1.95;;
803;SDS011;25687;49.976;8.240;2022-08-21T15:47:37;3.90;;;2.25;;
803;SDS011;25687;49.976;8.240;2022-08-21T15:50:04;4.30;;;2.70;;
803;SDS011;25687;49.976;8.240;2022-08-21T15:52:32;5.20;;;2.08;;
803;SDS011;25687;49.976;8.240;2022-08-21T15:54:57;5.03;;;2.15;;
803;SDS011;25687;49.976;8.240;2022-08-21T15:57:23;2.78;;;2.00;;
803;SDS011;25687;49.976;8.240;2022-08-21T15:59:51;5.47;;;2.35;;
803;SDS011;25687;49.976;8.240;2022-08-21T16:02:22;4.80;;;2.30;;
803;SDS011;25687;49.976;8.240;2022-08-21T16:04:50;6.45;;;2.63;;
803;SDS011;25687;49.976;8.240;2022-08-21T16:07:15;6.10;;;2.20;;
803;SDS011;25687;49.976;8.240;2022-08-21T16:09:41;3.85;;;2.00;;
803;SDS011;25687;49.976;8.240;2022-08-21T16:12:07;5.72;;;2.05;;
803;SDS011;25687;49.976;8.240;2022-08-21T16:14:34;3.78;;;1.75;;
803;SDS011;25687;49.976;8.240;2022-08-21T16:17:04;4.60;;;2.35;;
803;SDS011;25687;49.976;8.240;2022-08-21T16:19:30;4.38;;;2.30;;
803;SDS011;25687;49.976;8.240;2022-08-21T16:21:56;4.47;;;2.10;;
803;SDS011;25687;49.976;8.240;2022-08-21T16:24:22;5.40;;;1.92;;
803;SDS011;25687;49.976;8.240;2022-08-21T16:26:48;4.95;;;2.03;;
803;SDS011;25687;49.976;8.240;2022-08-21T16:29:14;3.55;;;1.70;;
803;SDS011;25687;49.976;8.240;2022-08-21T16:31:40;7.30;;;2.42;;
803;SDS011;25687;49.976;8.240;2022-08-21T16:34:05;2.47;;;1.67;;
803;SDS011;25687;49.976;8.240;2022-08-21T16:36:31;5.00;;;2.08;;
803;SDS011;25687;49.976;8.240;2022-08-21T16:38:57;4.55;;;1.92;;
803;SDS011;25687;49.976;8.240;2022-08-21T16:41:26;7.35;;;2.13;;
803;SDS011;25687;49.976;8.240;2022-08-21T16:43:54;6.78;;;2.28;;
803;SDS011;25687;49.976;8.240;2022-08-21T16:46:20;4.57;;;2.20;;